createdAt,value
2019-05-17T00:00:47.567Z,100169.19
2019-05-17T00:03:17.047Z,100173.84
2019-05-17T00:05:46.612Z,100171.27
2019-05-17T00:08:16.511Z,100166.61
2019-05-17T00:10:46.491Z,100162.31
2019-05-17T00:13:17.261Z,100161.48
2019-05-17T00:15:47.396Z,100153.77
2019-05-17T00:18:17.115Z,100149.58
2019-05-17T00:20:46.548Z,100150.38
2019-05-17T00:23:17.335Z,100145.33
2019-05-17T00:25:46.964Z,100149.09
2019-05-17T00:28:16.436Z,100143.15
2019-05-17T00:30:46.574Z,100140.12
2019-05-17T00:33:16.932Z,100132.00
2019-05-17T00:35:46.918Z,100138.37
2019-05-17T00:38:16.918Z,100132.00
2019-05-17T00:40:47.060Z,100126.52
2019-05-17T00:43:16.887Z,100123.56
2019-05-17T00:45:46.868Z,100126.98
2019-05-17T00:48:17.184Z,100126.11
2019-05-17T00:50:52.288Z,100121.41
2019-05-17T00:53:16.448Z,100125.63
2019-05-17T00:55:46.638Z,100115.85
2019-05-17T00:58:17.314Z,100127.72
2019-05-17T01:00:47.958Z,100127.39
2019-05-17T01:03:16.335Z,100113.31
2019-05-17T01:05:47.342Z,100121.82
2019-05-17T01:08:17.428Z,100126.67
2019-05-17T01:10:47.366Z,100114.78
2019-05-17T01:13:17.283Z,100115.70
2019-05-17T01:15:47.436Z,100112.24
2019-05-17T01:18:16.393Z,100104.95
2019-05-17T01:20:47.300Z,100101.98
2019-05-17T01:23:16.621Z,100100.35
2019-05-17T01:25:45.247Z,100104.58
2019-05-17T01:28:13.671Z,100110.12
2019-05-17T01:30:42.092Z,100102.86
2019-05-17T01:33:10.629Z,100103.28
2019-05-17T01:35:39.063Z,100095.24
2019-05-17T01:38:07.649Z,100096.17
2019-05-17T01:40:37.315Z,100092.34
2019-05-17T01:43:07.828Z,100085.04
2019-05-17T01:45:36.673Z,100087.52
2019-05-17T01:48:07.357Z,100087.52
2019-05-17T01:50:37.443Z,100086.71
2019-05-17T01:53:07.389Z,100090.59
2019-05-17T01:55:37.545Z,100078.21
2019-05-17T01:58:07.351Z,100082.47
2019-05-17T02:00:37.620Z,100077.77
2019-05-17T02:03:07.088Z,100077.37
2019-05-17T02:05:37.305Z,100077.03
2019-05-17T02:08:06.904Z,100078.66
2019-05-17T02:10:37.653Z,100073.56
2019-05-17T02:13:06.541Z,100074.80
2019-05-17T02:15:37.475Z,100068.02
2019-05-17T02:18:07.039Z,100063.78
2019-05-17T02:20:37.346Z,100059.42
2019-05-17T02:23:07.416Z,100058.22
2019-05-17T02:25:37.100Z,100056.05
2019-05-17T02:28:05.762Z,100059.14
2019-05-17T02:30:34.704Z,100064.67
2019-05-17T02:33:04.412Z,100062.51
2019-05-17T02:35:33.824Z,100060.03
2019-05-17T02:38:03.272Z,100058.70
2019-05-17T02:40:33.911Z,100061.77
2019-05-17T02:43:03.248Z,100060.41
2019-05-17T02:45:32.969Z,100057.47
2019-05-17T02:48:03.880Z,100052.78
2019-05-17T02:50:33.076Z,100054.45
2019-05-17T02:53:04.458Z,100056.23
2019-05-17T02:55:33.363Z,100056.59
2019-05-17T02:58:03.223Z,100065.64
2019-05-17T03:00:33.963Z,100063.55
2019-05-17T03:03:03.355Z,100064.83
2019-05-17T03:05:33.876Z,100068.01
2019-05-17T03:08:04.025Z,100067.58
2019-05-17T03:10:33.752Z,100068.70
2019-05-17T03:13:04.153Z,100069.59
2019-05-17T03:15:32.744Z,100071.30
2019-05-17T03:18:03.635Z,100071.36
2019-05-17T03:20:32.764Z,100070.90
2019-05-17T03:23:03.907Z,100072.24
2019-05-17T03:25:33.493Z,100073.98
2019-05-17T03:28:03.406Z,100070.63
2019-05-17T03:30:36.294Z,100078.66
2019-05-17T03:33:07.361Z,100070.69
2019-05-17T03:35:37.964Z,100065.98
2019-05-17T03:38:04.763Z,100065.14
2019-05-17T03:41:00.975Z,100062.66
2019-05-17T03:43:03.424Z,100066.16
2019-05-17T03:45:33.977Z,100066.26
2019-05-17T03:48:04.825Z,100067.59
2019-05-17T03:50:33.580Z,100075.31
2019-05-17T03:53:02.624Z,100076.23
2019-05-17T03:55:33.101Z,100075.77
2019-05-17T03:58:03.144Z,100079.60
2019-05-17T04:00:35.152Z,100078.44
2019-05-17T04:03:02.966Z,100082.25
2019-05-17T04:05:33.393Z,100079.27
2019-05-17T04:08:03.629Z,100079.23
2019-05-17T04:10:33.437Z,100085.65
2019-05-17T04:13:04.184Z,100081.42
2019-05-17T04:15:33.018Z,100082.62
2019-05-17T04:18:04.131Z,100086.45
2019-05-17T04:20:33.251Z,100080.23
2019-05-17T04:23:03.975Z,100073.89
2019-05-17T04:25:33.782Z,100074.63
2019-05-17T04:28:03.318Z,100076.43
2019-05-17T04:30:32.970Z,100078.13
2019-05-17T04:33:03.519Z,100083.64
2019-05-17T04:35:32.790Z,100076.48
2019-05-17T04:38:04.239Z,100076.81
2019-05-17T04:40:34.011Z,100075.90
2019-05-17T04:43:03.350Z,100071.22
2019-05-17T04:45:33.663Z,100072.95
2019-05-17T04:48:04.079Z,100070.86
2019-05-17T04:50:33.630Z,100073.86
2019-05-17T04:53:02.828Z,100074.69
2019-05-17T04:55:34.076Z,100074.69
2019-05-17T04:58:03.910Z,100073.84
2019-05-17T05:00:34.094Z,100068.69
2019-05-17T05:03:04.432Z,100075.52
2019-05-17T05:05:33.693Z,100080.17
2019-05-17T05:08:03.101Z,100084.45
2019-05-17T05:10:33.763Z,100079.79
2019-05-17T05:13:03.425Z,100084.83
2019-05-17T05:15:44.885Z,100077.99
2019-05-17T05:18:13.898Z,100077.96
2019-05-17T05:20:43.565Z,100084.70
2019-05-17T05:23:13.268Z,100086.64
2019-05-17T05:25:43.104Z,100077.55
2019-05-17T05:28:11.779Z,100079.66
2019-05-17T05:30:42.199Z,100079.91
2019-05-17T05:33:12.835Z,100079.80
2019-05-17T05:35:42.457Z,100086.01
2019-05-17T05:38:13.006Z,100085.00
2019-05-17T05:40:43.037Z,100082.98
2019-05-17T05:43:12.106Z,100088.10
2019-05-17T05:45:41.721Z,100082.08
2019-05-17T05:48:12.480Z,100085.62
2019-05-17T05:50:42.564Z,100086.09
2019-05-17T05:53:12.999Z,100087.34
2019-05-17T05:55:42.828Z,100087.25
2019-05-17T05:58:12.089Z,100085.51
2019-05-17T06:00:42.786Z,100082.41
2019-05-17T06:03:11.968Z,100076.52
2019-05-17T06:05:42.203Z,100076.58
2019-05-17T06:08:12.332Z,100068.73
2019-05-17T06:10:42.565Z,100070.72
2019-05-17T06:13:13.010Z,100072.45
2019-05-17T06:15:42.915Z,100065.30
2019-05-17T06:18:12.326Z,100063.03
2019-05-17T06:20:42.081Z,100059.11
2019-05-17T06:23:12.256Z,100053.47
2019-05-17T06:25:43.568Z,100055.41
2019-05-17T06:28:11.620Z,100055.96
2019-05-17T06:30:42.633Z,100049.16
2019-05-17T06:33:12.011Z,100047.80
2019-05-17T06:35:42.386Z,100043.89
2019-05-17T06:38:11.985Z,100048.62
2019-05-17T06:40:42.007Z,100041.95
2019-05-17T06:43:12.994Z,100042.04
2019-05-17T06:45:41.846Z,100049.88
2019-05-17T06:48:11.725Z,100045.15
2019-05-17T06:50:42.999Z,100040.11
2019-05-17T06:53:12.270Z,100029.78
2019-05-17T06:55:42.445Z,100035.86
2019-05-17T06:58:12.255Z,100037.88
2019-05-17T07:00:41.031Z,100033.67
2019-05-17T07:03:09.810Z,100036.00
2019-05-17T07:05:43.034Z,100034.51
2019-05-17T07:08:11.492Z,100034.41
2019-05-17T07:10:40.152Z,100031.09
2019-05-17T07:13:10.603Z,100034.07
2019-05-17T07:15:44.705Z,100038.27
2019-05-17T07:18:10.328Z,100038.59
2019-05-17T07:20:39.718Z,100041.84
2019-05-17T07:23:10.741Z,100029.75
2019-05-17T07:25:39.749Z,100038.20
2019-05-17T07:28:10.185Z,100034.10
2019-05-17T07:30:40.009Z,100043.99
2019-05-17T07:33:10.096Z,100044.77
2019-05-17T07:35:39.703Z,100047.77
2019-05-17T07:38:10.705Z,100049.52
2019-05-17T07:40:39.935Z,100048.31
2019-05-17T07:43:14.322Z,100045.27
2019-05-17T07:45:40.381Z,100050.17
2019-05-17T07:48:09.785Z,100049.14
2019-05-17T07:50:39.829Z,100045.82
2019-05-17T07:53:10.272Z,100046.48
2019-05-17T07:55:39.889Z,100046.69
2019-05-17T07:58:09.954Z,100050.47
2019-05-17T08:00:39.980Z,100050.32
2019-05-17T08:03:13.026Z,100046.95
2019-05-17T08:05:40.345Z,100044.57
2019-05-17T08:08:09.787Z,100043.43
2019-05-17T08:10:41.094Z,100042.36
2019-05-17T08:13:25.150Z,100045.78
2019-05-17T08:15:39.714Z,100048.87
2019-05-17T08:18:10.956Z,100044.22
2019-05-17T08:20:40.015Z,100049.28
2019-05-17T08:23:10.697Z,100044.91
2019-05-17T08:25:51.903Z,100042.31
2019-05-17T08:28:10.941Z,100040.20
2019-05-17T08:30:40.974Z,100035.77
2019-05-17T08:33:10.887Z,100032.23
2019-05-17T08:35:40.148Z,100030.00
2019-05-17T08:38:10.330Z,100023.63
2019-05-17T08:40:40.326Z,100034.83
2019-05-17T08:43:10.126Z,100029.42
2019-05-17T08:45:40.766Z,100029.95
2019-05-17T08:48:09.612Z,100033.00
2019-05-17T08:50:40.234Z,100034.06
2019-05-17T08:53:10.628Z,100026.78
2019-05-17T08:55:40.941Z,100024.16
2019-05-17T08:58:10.389Z,100020.39
2019-05-17T09:00:40.667Z,100021.95
2019-05-17T09:03:10.615Z,100021.30
2019-05-17T09:05:41.680Z,100016.36
2019-05-17T09:08:10.547Z,100021.11
2019-05-17T09:10:40.954Z,100015.91
2019-05-17T09:13:12.332Z,100018.02
2019-05-17T09:15:40.066Z,100016.66
2019-05-17T09:18:09.889Z,100019.52
2019-05-17T09:20:40.653Z,100013.41
2019-05-17T09:23:09.681Z,100020.14
2019-05-17T09:25:39.713Z,100008.97
2019-05-17T09:28:10.115Z,100010.36
2019-05-17T09:30:40.440Z,100005.12
2019-05-17T09:33:11.242Z,100002.36
2019-05-17T09:35:40.883Z,100003.24
2019-05-17T09:38:10.505Z,99993.86
2019-05-17T09:40:40.243Z,99999.98
2019-05-17T09:43:10.267Z,99998.22
2019-05-17T09:45:40.524Z,99997.39
2019-05-17T09:48:10.383Z,100003.67
2019-05-17T09:50:39.962Z,99998.44
2019-05-17T09:53:10.905Z,99998.09
2019-05-17T09:55:39.768Z,100007.25
2019-05-17T09:58:09.864Z,99999.42
2019-05-17T10:00:38.729Z,99994.98
2019-05-17T10:03:09.517Z,99985.29
2019-05-17T10:05:40.271Z,99988.48
2019-05-17T10:08:10.581Z,99971.45
2019-05-17T10:10:40.228Z,99970.77
2019-05-17T10:13:09.825Z,99978.42
2019-05-17T10:15:40.836Z,99964.73
2019-05-17T10:18:11.064Z,99965.53
2019-05-17T10:20:40.009Z,99956.95
2019-05-17T10:23:10.573Z,99970.13
2019-05-17T10:25:40.065Z,99963.64
2019-05-17T10:28:10.013Z,99956.47
2019-05-17T10:30:40.086Z,99959.09
2019-05-17T10:33:09.864Z,99957.73
2019-05-17T10:35:40.639Z,99950.76
2019-05-17T10:38:10.367Z,99946.10
2019-05-17T10:40:40.907Z,99944.02
2019-05-17T10:43:10.214Z,99945.86
2019-05-17T10:45:40.189Z,99946.26
2019-05-17T10:48:10.171Z,99943.37
2019-05-17T10:50:40.715Z,99941.36
2019-05-17T10:53:10.060Z,99937.73
2019-05-17T10:55:39.746Z,99938.25
2019-05-17T10:58:10.093Z,99935.80
2019-05-17T11:00:41.409Z,99939.56
2019-05-17T11:03:09.990Z,99940.16
2019-05-17T11:05:40.144Z,99935.61
2019-05-17T11:08:10.707Z,99929.66
2019-05-17T11:10:39.416Z,99935.59
2019-05-17T11:13:08.245Z,99916.41
2019-05-17T11:15:36.703Z,99917.16
2019-05-17T11:18:05.316Z,99921.86
2019-05-17T11:20:33.818Z,99932.94
2019-05-17T11:23:02.226Z,99929.13
2019-05-17T11:25:30.723Z,99926.05
2019-05-17T11:27:59.211Z,99929.38
2019-05-17T11:30:27.688Z,99929.61
2019-05-17T11:32:56.107Z,99924.59
2019-05-17T11:35:24.866Z,99931.59
2019-05-17T11:37:53.371Z,99935.00
2019-05-17T11:40:21.917Z,99917.98
2019-05-17T11:42:50.347Z,99912.94
2019-05-17T11:45:27.275Z,99922.78
2019-05-17T11:47:49.043Z,99919.55
2019-05-17T11:50:17.820Z,99917.89
2019-05-17T11:52:46.236Z,99923.11
2019-05-17T11:55:15.631Z,99923.60
2019-05-17T11:57:44.107Z,99923.11
2019-05-17T12:00:14.177Z,99920.94
2019-05-17T12:02:42.566Z,99923.35
2019-05-17T12:05:11.336Z,99914.12
2019-05-17T12:07:39.748Z,99915.38
2019-05-17T12:10:09.028Z,99927.41
2019-05-17T12:12:37.431Z,99923.04
2019-05-17T12:15:07.612Z,99926.76
2019-05-17T12:17:36.037Z,99920.75
2019-05-17T12:20:06.791Z,99923.17
2019-05-17T12:22:35.250Z,99916.72
2019-05-17T12:25:08.269Z,99920.67
2019-05-17T12:27:36.723Z,99914.08
2019-05-17T12:30:09.978Z,99917.63
2019-05-17T12:32:38.501Z,99916.98
2019-05-17T12:35:07.386Z,99918.52
2019-05-17T12:37:35.873Z,99915.59
2019-05-17T12:40:05.936Z,99912.00
2019-05-17T12:42:34.402Z,99912.28
2019-05-17T12:45:03.471Z,99908.04
2019-05-17T12:47:31.917Z,99904.08
2019-05-17T12:50:00.408Z,99895.30
2019-05-17T12:52:28.815Z,99897.55
2019-05-17T12:54:57.318Z,99897.80
2019-05-17T12:57:25.785Z,99900.07
2019-05-17T12:59:54.233Z,99906.73
2019-05-17T13:02:22.682Z,99890.30
2019-05-17T13:04:51.135Z,99902.28
2019-05-17T13:07:19.584Z,99898.20
2019-05-17T13:09:48.000Z,99901.50
2019-05-17T13:12:16.422Z,99897.20
2019-05-17T13:14:44.890Z,99904.63
2019-05-17T13:17:13.345Z,99899.94
2019-05-17T13:19:41.739Z,99900.11
2019-05-17T13:22:10.282Z,99895.09
2019-05-17T13:24:38.694Z,99894.78
2019-05-17T13:27:07.159Z,99894.75
2019-05-17T13:29:35.674Z,99886.95
2019-05-17T13:32:04.187Z,99894.95
2019-05-17T13:34:32.629Z,99894.80
2019-05-17T13:37:01.041Z,99885.16
2019-05-17T13:39:29.470Z,99886.00
2019-05-17T13:41:57.965Z,99886.84
2019-05-17T13:44:26.473Z,99885.11
2019-05-17T13:46:54.960Z,99887.84
2019-05-17T13:49:23.382Z,99888.44
2019-05-17T13:51:51.817Z,99879.39
2019-05-17T13:54:20.240Z,99877.17
2019-05-17T13:56:48.681Z,99875.22
2019-05-17T13:59:17.109Z,99875.64
2019-05-17T14:01:45.538Z,99871.55
2019-05-17T14:04:14.005Z,99877.93
2019-05-17T14:06:42.514Z,99869.62
2019-05-17T14:09:11.013Z,99870.63
2019-05-17T14:11:39.432Z,99871.67
2019-05-17T14:14:07.872Z,99872.20
2019-05-17T14:16:36.273Z,99869.70
2019-05-17T14:19:04.777Z,99873.34
2019-05-17T14:21:33.186Z,99874.23
2019-05-17T14:24:01.724Z,99875.54
2019-05-17T14:26:30.128Z,99872.20
2019-05-17T14:28:58.543Z,99874.89
2019-05-17T14:31:26.994Z,99877.36
2019-05-17T14:33:55.475Z,99880.64
2019-05-17T14:36:23.889Z,99866.75
2019-05-17T14:38:52.312Z,99870.39
2019-05-17T14:41:20.896Z,99866.81
2019-05-17T14:43:49.315Z,99872.31
2019-05-17T14:46:17.754Z,99868.05
2019-05-17T14:48:46.196Z,99864.27
2019-05-17T14:51:14.691Z,99864.87
2019-05-17T14:53:43.205Z,99861.69
2019-05-17T14:56:11.636Z,99869.57
2019-05-17T14:58:40.087Z,99860.53
2019-05-17T15:01:08.498Z,99861.98
2019-05-17T15:03:36.914Z,99856.19
2019-05-17T15:06:05.551Z,99854.84
2019-05-17T15:08:33.956Z,99852.55
2019-05-17T15:11:02.437Z,99849.37
2019-05-17T15:13:30.840Z,99842.22
2019-05-17T15:15:59.263Z,99848.06
2019-05-17T15:18:27.772Z,99845.62
2019-05-17T15:20:56.249Z,99847.55
2019-05-17T15:23:24.683Z,99843.39
2019-05-17T15:25:53.102Z,99841.11
2019-05-17T15:28:21.525Z,99837.70
2019-05-17T15:30:50.021Z,99835.16
2019-05-17T15:33:18.530Z,99826.00
2019-05-17T15:35:46.953Z,99823.47
2019-05-17T15:38:15.388Z,99834.19
2019-05-17T15:40:43.801Z,99830.30
2019-05-17T15:43:12.308Z,99828.42
2019-05-17T15:45:40.735Z,99830.72
2019-05-17T15:48:09.210Z,99827.38
2019-05-17T15:50:37.682Z,99825.16
2019-05-17T15:53:06.175Z,99826.21
2019-05-17T15:55:34.606Z,99822.21
2019-05-17T15:58:03.162Z,99820.75
2019-05-17T16:00:31.563Z,99812.31
2019-05-17T16:03:00.108Z,99814.01
2019-05-17T16:05:28.597Z,99810.66
2019-05-17T16:07:57.083Z,99812.02
2019-05-17T16:10:25.540Z,99805.34
2019-05-17T16:13:02.169Z,99807.48
2019-05-17T16:15:24.139Z,99802.00
2019-05-17T16:17:52.616Z,99801.63
2019-05-17T16:20:21.108Z,99797.30
2019-05-17T16:22:49.568Z,99802.92
2019-05-17T16:25:18.046Z,99799.64
2019-05-17T16:27:46.479Z,99796.08
2019-05-17T16:30:15.060Z,99795.48
2019-05-17T16:32:43.475Z,99793.27
2019-05-17T16:35:12.064Z,99795.94
2019-05-17T16:37:40.553Z,99789.89
2019-05-17T16:40:09.414Z,99788.06
2019-05-17T16:42:37.840Z,99791.51
2019-05-17T16:45:08.679Z,99793.42
2019-05-17T16:47:37.082Z,99787.77
2019-05-17T16:50:09.131Z,99787.17
2019-05-17T16:52:37.546Z,99782.08
2019-05-17T16:55:07.149Z,99781.19
2019-05-17T16:57:35.596Z,99775.31
2019-05-17T17:00:22.872Z,99770.70
2019-05-17T17:02:51.304Z,99769.23
2019-05-17T17:05:19.758Z,99770.98
2019-05-17T17:07:48.212Z,99770.00
2019-05-17T17:10:16.806Z,99763.33
2019-05-17T17:12:45.211Z,99764.77
2019-05-17T17:15:14.301Z,99765.66
2019-05-17T17:17:42.736Z,99761.95
2019-05-17T17:20:13.011Z,99758.97
2019-05-17T17:22:41.487Z,99756.84
2019-05-17T17:25:10.011Z,99758.72
2019-05-17T17:27:38.608Z,99755.66
2019-05-17T17:30:08.578Z,99761.09
2019-05-17T17:32:37.041Z,99758.58
2019-05-17T17:35:07.272Z,99760.31
2019-05-17T17:37:35.703Z,99760.31
2019-05-17T17:40:07.391Z,99756.56
2019-05-17T17:42:37.262Z,99757.39
2019-05-17T17:45:10.386Z,99762.41
2019-05-17T17:47:38.792Z,99755.31
2019-05-17T17:50:08.183Z,99755.56
2019-05-17T17:52:36.674Z,99758.39
2019-05-17T17:55:06.263Z,99757.98
2019-05-17T17:57:34.679Z,99755.53
2019-05-17T18:00:04.685Z,99747.44
2019-05-17T18:02:33.179Z,99744.34
2019-05-17T18:05:01.575Z,99747.04
2019-05-17T18:07:29.999Z,99740.48
2019-05-17T18:09:58.587Z,99742.66
2019-05-17T18:12:27.071Z,99743.05
2019-05-17T18:14:55.527Z,99742.63
2019-05-17T18:17:24.122Z,99740.73
2019-05-17T18:19:52.498Z,99735.33
2019-05-17T18:22:20.940Z,99737.20
2019-05-17T18:24:49.364Z,99740.23
2019-05-17T18:27:17.816Z,99745.14
2019-05-17T18:29:46.326Z,99742.47
2019-05-17T18:32:14.740Z,99740.78
2019-05-17T18:34:43.170Z,99747.80
2019-05-17T18:37:11.607Z,99755.18
2019-05-17T18:39:40.024Z,99749.34
2019-05-17T18:42:08.448Z,99746.06
2019-05-17T18:44:36.947Z,99752.19
2019-05-17T18:47:05.520Z,99762.18
2019-05-17T18:49:34.011Z,99760.95
2019-05-17T18:52:02.483Z,99753.86
2019-05-17T18:54:30.904Z,99757.66
2019-05-17T18:56:59.394Z,99760.64
2019-05-17T18:59:27.845Z,99751.07
2019-05-17T19:01:56.278Z,99753.77
2019-05-17T19:04:24.769Z,99750.05
2019-05-17T19:06:53.190Z,99757.82
2019-05-17T19:09:21.634Z,99758.02
2019-05-17T19:11:50.064Z,99763.83
2019-05-17T19:14:18.555Z,99760.27
2019-05-17T19:16:47.004Z,99759.17
2019-05-17T19:19:15.418Z,99757.89
2019-05-17T19:21:43.902Z,99761.55
2019-05-17T19:24:12.367Z,99762.52
2019-05-17T19:26:40.787Z,99764.72
2019-05-17T19:29:09.230Z,99767.34
2019-05-17T19:31:37.718Z,99772.34
2019-05-17T19:34:06.205Z,99771.66
2019-05-17T19:36:34.675Z,99771.00
2019-05-17T19:39:04.859Z,99773.39
2019-05-17T19:41:33.296Z,99776.20
2019-05-17T19:44:01.827Z,99775.42
2019-05-17T19:46:30.287Z,99781.08
2019-05-17T19:48:58.678Z,99780.27
2019-05-17T19:51:27.170Z,99776.28
2019-05-17T19:53:55.666Z,99773.11
2019-05-17T19:56:24.099Z,99778.19
2019-05-17T19:58:52.524Z,99773.05
2019-05-17T20:01:21.033Z,99771.63
2019-05-17T20:03:49.566Z,99769.33
2019-05-17T20:06:18.263Z,99773.03
2019-05-17T20:08:47.241Z,99769.52
2019-05-17T20:11:17.070Z,99768.12
2019-05-17T20:13:45.513Z,99769.34
2019-05-17T20:16:13.923Z,99772.48
2019-05-17T20:18:42.375Z,99764.09
2019-05-17T20:21:10.816Z,99766.06
2019-05-17T20:23:39.333Z,99766.73
2019-05-17T20:26:07.800Z,99763.84
2019-05-17T20:28:36.225Z,99758.30
2019-05-17T20:31:04.684Z,99762.88
2019-05-17T20:33:33.177Z,99760.31
2019-05-17T20:36:01.619Z,99751.73
2019-05-17T20:38:30.043Z,99759.13
2019-05-17T20:40:58.478Z,99755.56
2019-05-17T20:43:26.915Z,99756.28
2019-05-17T20:45:55.352Z,99755.98
2019-05-17T20:48:25.869Z,99758.34
2019-05-17T20:50:53.936Z,99756.81
2019-05-17T20:53:22.364Z,99754.98
2019-05-17T20:55:50.798Z,99755.44
2019-05-17T20:58:19.235Z,99756.48
2019-05-17T21:00:47.659Z,99754.88
2019-05-17T21:03:16.099Z,99753.94
2019-05-17T21:05:44.546Z,99752.62
2019-05-17T21:08:13.007Z,99746.25
2019-05-17T21:10:42.345Z,99751.47
2019-05-17T21:13:10.755Z,99745.81
2019-05-17T21:15:47.456Z,99741.78
2019-05-17T21:18:09.340Z,99748.19
2019-05-17T21:20:37.771Z,99748.79
2019-05-17T21:23:06.210Z,99748.03
2019-05-17T21:25:34.654Z,99744.67
2019-05-17T21:28:03.070Z,99749.50
2019-05-17T21:30:31.501Z,99746.94
2019-05-17T21:32:59.961Z,99742.30
2019-05-17T21:35:28.390Z,99741.73
2019-05-17T21:37:56.833Z,99745.19
2019-05-17T21:40:25.252Z,99739.50
2019-05-17T21:42:53.776Z,99744.27
2019-05-17T21:45:22.197Z,99736.77
2019-05-17T21:47:50.685Z,99736.81
2019-05-17T21:50:19.273Z,99736.64
2019-05-17T21:52:47.689Z,99743.11
2019-05-17T21:55:16.265Z,99740.55
2019-05-17T21:57:44.707Z,99744.50
2019-05-17T22:00:16.274Z,99739.09
2019-05-17T22:02:44.717Z,99744.98
2019-05-17T22:05:13.221Z,99742.39
2019-05-17T22:07:41.647Z,99735.19
2019-05-17T22:10:10.240Z,99740.10
2019-05-17T22:12:38.654Z,99738.89
2019-05-17T22:15:07.158Z,99738.96
2019-05-17T22:17:35.593Z,99736.05
2019-05-17T22:20:06.014Z,99742.03
2019-05-17T22:22:34.554Z,99741.34
2019-05-17T22:25:03.025Z,99742.34
2019-05-17T22:27:31.470Z,99739.91
2019-05-17T22:29:59.977Z,99747.14
2019-05-17T22:32:28.403Z,99744.81
2019-05-17T22:34:56.832Z,99740.46
2019-05-17T22:37:25.264Z,99741.17
2019-05-17T22:39:53.689Z,99737.69
2019-05-17T22:42:22.161Z,99741.27
2019-05-17T22:44:50.600Z,99741.17
2019-05-17T22:47:19.032Z,99741.87
2019-05-17T22:49:48.246Z,99737.66
2019-05-17T22:52:16.675Z,99732.16
2019-05-17T22:54:45.118Z,99738.55
2019-05-17T22:57:13.566Z,99736.09
2019-05-17T22:59:41.986Z,99734.02
2019-05-17T23:02:10.407Z,99728.09
2019-05-17T23:04:38.828Z,99722.98
2019-05-17T23:07:07.298Z,99726.53
2019-05-17T23:09:35.731Z,99724.34
2019-05-17T23:12:04.337Z,99723.75
2019-05-17T23:14:32.772Z,99724.88
2019-05-17T23:17:01.197Z,99722.42
2019-05-17T23:19:29.640Z,99718.80
2019-05-17T23:21:58.058Z,99714.94
2019-05-17T23:24:26.469Z,99712.95
2019-05-17T23:26:54.913Z,99711.79
2019-05-17T23:29:23.332Z,99703.86
2019-05-17T23:31:51.770Z,99700.95
2019-05-17T23:34:20.224Z,99697.80
2019-05-17T23:36:48.647Z,99692.42
2019-05-17T23:39:17.120Z,99690.41
2019-05-17T23:41:45.516Z,99698.84
2019-05-17T23:44:13.976Z,99692.57
2019-05-17T23:46:42.455Z,99683.66
2019-05-17T23:49:10.876Z,99681.11
2019-05-17T23:51:39.330Z,99675.28
2019-05-17T23:54:07.874Z,99675.58
2019-05-17T23:56:36.305Z,99679.38
2019-05-17T23:59:04.797Z,99674.72
